Time;durP1;ratioP1;P1;durP2;ratioP2;P2;SDS_P1;SDS_P2;PMS_P1;PMS_P2;Temp;Humidity;BMP_temperature;BMP_pressure;BME280_temperature;BME280_humidity;BME280_pressure;Samples;Min_cycle;Max_cycle;Signal;HPM_P1;HPM_P2
2021/11/06 00:54:43;;;;;;;10.73;4.85;;;;;;;6.88;100.00;102644.41;2615938;36;20064;-73
2021/11/06 00:57:21;;;;;;;10.88;4.97;;;;;;;6.86;100.00;102641.81;2626885;31;20031;-69
2021/11/06 01:00:28;;;;;;;9.77;5.57;;;;;;;6.84;100.00;102649.03;2626575;36;20061;-69
2021/11/06 01:04:08;;;;;;;;;;;;;;;;;;;;;
2021/11/06 01:16:30;;;;;;;13.30;6.70;;;;;;;6.90;100.00;102643.41;2643976;36;20153;-70
2021/11/06 01:22:56;;;;;;;;;;;;;;;;;;;;;
2021/11/06 01:26:13;;;;;;;12.30;6.97;;;;;;;6.94;100.00;102620.91;2626069;36;20035;-70
2021/11/06 01:35:01;;;;;;;19.70;8.88;;;;;;;6.99;100.00;102610.88;2645550;36;20038;-70
2021/11/06 01:38:09;;;;;;;12.90;7.22;;;;;;;6.97;100.00;102612.72;2627746;36;20035;-70
2021/11/06 01:41:38;;;;;;;;;;;;;;;;;;;;;
2021/11/06 01:44:23;;;;;;;;;;;;;;;7.07;100.00;102612.34;2626365;36;20094;-71
2021/11/06 01:47:20;;;;;;;15.48;7.10;;;;;;;7.05;100.00;102608.84;2608892;36;19981;-70
2021/11/06 01:53:49;;;;;;;;;;;;;;;;;;;;;
2021/11/06 02:03:14;;;;;;;11.52;7.35;;;;;;;7.09;100.00;102610.44;2641075;36;20602;-70
2021/11/06 02:08:59;;;;;;;13.43;8.32;;;;;;;7.10;100.00;102625.59;2643746;36;20082;-70
2021/11/06 02:15:27;;;;;;;;;;;;;;;;;;;;;
2021/11/06 02:18:52;;;;;;;13.70;8.32;;;;;;;7.13;100.00;102615.59;2626559;36;20035;-69
2021/11/06 02:21:55;;;;;;;14.25;8.90;;;;;;;7.12;100.00;102599.59;2626695;36;20078;-69
2021/11/06 02:24:35;;;;;;;15.07;10.32;;;;;;;7.10;100.00;102607.69;2643267;36;20061;-71
2021/11/06 02:27:50;;;;;;;15.80;10.05;;;;;;;7.15;100.00;102605.66;2627295;36;20687;-72
2021/11/06 02:34:10;;;;;;;;;;;;;;;;;;;;;
2021/11/06 02:40:05;;;;;;;;;;;;;;;;;;;;;
2021/11/06 02:43:09;;;;;;;;;;;;;;;;;;;;;
2021/11/06 02:46:10;;;;;;;;;;;;;;;;;;;;;
2021/11/06 02:49:04;;;;;;;17.83;13.75;;;;;;;7.20;100.00;102610.84;2628772;36;20290;-70
2021/11/06 02:52:07;;;;;;;;;;;;;;;;;;;;;
2021/11/06 02:54:54;;;;;;;;;;;;;;;;;;;;;
2021/11/06 03:00:53;;;;;;;;;;;;;;;;;;;;;
2021/11/06 03:04:03;;;;;;;28.88;16.40;;;;;;;7.15;100.00;102611.00;2609515;36;20386;-71
2021/11/06 03:06:56;;;;;;;25.60;16.73;;;;;;;7.15;100.00;102594.09;2627220;36;20077;-71
2021/11/06 03:12:49;;;;;;;30.73;16.15;;;;;;;7.20;100.00;102592.09;2645269;36;20057;-70
2021/11/06 03:19:09;;;;;;;28.05;17.35;;;;;;;7.22;100.00;102586.66;2646140;36;20603;-69
2021/11/06 03:22:21;;;;;;;24.92;16.67;;;;;;;7.29;100.00;102588.13;2625964;36;20030;-73
2021/11/06 03:25:05;;;;;;;;;;;;;;;;;;;;;
2021/11/06 03:27:50;;;;;;;;;;;;;;;;;;;;;
2021/11/06 03:30:24;;;;;;;22.30;16.00;;;;;;;7.26;100.00;102575.72;2627874;36;20062;-72
2021/11/06 03:33:02;;;;;;;24.55;16.52;;;;;;;7.26;100.00;102581.09;2609164;36;20946;-71
2021/11/06 03:39:03;;;;;;;22.90;14.68;;;;;;;7.34;100.00;102573.53;2645956;36;20038;-70
2021/11/06 03:41:35;;;;;;;23.90;15.43;;;;;;;7.32;100.00;102583.47;2628160;36;20065;-70
2021/11/06 03:44:48;;;;;;;;;;;;;;;;;;;;;
2021/11/06 03:47:37;;;;;;;25.52;16.13;;;;;;;7.32;100.00;102566.53;2628507;36;20917;-70
2021/11/06 03:50:39;;;;;;;26.85;14.38;;;;;;;7.40;100.00;102569.69;2622840;36;20038;-70
2021/11/06 03:53:28;;;;;;;22.08;15.20;;;;;;;7.38;100.00;102560.88;2626969;36;20034;-72
2021/11/06 03:56:18;;;;;;;25.15;15.98;;;;;;;7.42;100.00;102574.97;2610621;36;20030;-74
2021/11/06 04:05:42;;;;;;;;;;;;;;;;;;;;;
2021/11/06 04:08:31;;;;;;;25.77;16.35;;;;;;;7.44;100.00;102568.63;2610188;36;20117;-71
2021/11/06 04:11:34;;;;;;;25.40;16.10;;;;;;;7.46;100.00;102576.56;2628454;36;20034;-71
2021/11/06 04:14:32;;;;;;;26.02;15.32;;;;;;;7.51;100.00;102577.25;2610021;36;20038;-70
2021/11/06 04:17:23;;;;;;;;;;;;;;;;;;;;;
2021/11/06 04:20:24;;;;;;;31.45;16.92;;;;;;;7.54;100.00;102569.06;2627680;36;20057;-72
2021/11/06 04:23:25;;;;;;;25.80;17.40;;;;;;;7.56;100.00;102577.88;2628164;36;20527;-71
2021/11/06 04:25:56;;;;;;;27.52;16.02;;;;;;;7.59;100.00;102588.44;2626313;36;20057;-72
2021/11/06 04:28:58;;;;;;;26.05;18.27;;;;;;;7.56;100.00;102577.00;2646430;36;20536;-73
2021/11/06 04:38:25;;;;;;;30.30;19.50;;;;;;;7.44;100.00;102568.63;2627297;36;20054;-71
2021/11/06 04:41:22;;;;;;;29.80;20.73;;;;;;;7.45;100.00;102566.78;2645595;36;20037;-70
2021/11/06 04:44:13;;;;;;;31.27;20.08;;;;;;;7.45;100.00;102569.47;2628048;36;20034;-71
2021/11/06 04:46:58;;;;;;;32.10;19.67;;;;;;;7.51;100.00;102571.88;2644581;36;20112;-71
2021/11/06 04:49:37;;;;;;;31.88;20.48;;;;;;;7.44;100.00;102567.75;2627981;36;20081;-71
2021/11/06 04:52:22;;;;;;;;;;;;;;;;;;;;;
2021/11/06 04:55:08;;;;;;;34.72;20.85;;;;;;;7.48;100.00;102569.31;2625737;36;20034;-74
2021/11/06 04:58:05;;;;;;;31.02;19.60;;;;;;;7.48;100.00;102558.59;2626342;36;20506;-71
2021/11/06 05:04:25;;;;;;;;;;;;;;;;;;;;;
2021/11/06 05:07:07;;;;;;;31.08;19.50;;;;;;;7.46;100.00;102572.06;2644503;36;20903;-71
2021/11/06 05:09:53;;;;;;;;;;;;;;;;;;;;;
2021/11/06 05:12:55;;;;;;;;;;;;;;;;;;;;;
2021/11/06 05:15:31;;;;;;;33.10;20.42;;;;;;;7.41;100.00;102559.88;2609508;36;20056;-72
2021/11/06 05:18:16;;;;;;;35.75;21.45;;;;;;;7.42;100.00;102564.25;2627223;36;20037;-72
2021/11/06 05:21:21;;;;;;;36.60;21.40;;;;;;;7.38;100.00;102560.88;2625573;36;20043;-73
2021/11/06 05:24:25;;;;;;;;;;;;;;;;;;;;;
2021/11/06 05:27:35;;;;;;;33.03;19.63;;;;;;;7.37;100.00;102568.03;2644525;36;20609;-72
2021/11/06 05:30:43;;;;;;;30.88;20.65;;;;;;;7.33;100.00;102573.59;2626502;36;20166;-72
2021/11/06 05:36:45;;;;;;;38.33;23.48;;;;;;;7.34;100.00;102568.19;2645742;36;20521;-72
2021/11/06 05:39:30;;;;;;;33.92;22.80;;;;;;;7.35;100.00;102569.06;2624890;36;20161;-72
2021/11/06 05:42:20;;;;;;;36.15;22.50;;;;;;;7.34;100.00;102573.53;2609083;36;20042;-75
2021/11/06 05:45:17;;;;;;;33.90;22.08;;;;;;;7.33;100.00;102573.59;2645300;36;20034;-71
2021/11/06 05:51:21;;;;;;;37.70;23.98;;;;;;;7.33;100.00;102573.59;2646513;36;20035;-72
2021/11/06 05:54:29;;;;;;;;;;;;;;;;;;;;;
2021/11/06 05:57:17;;;;;;;41.53;23.77;;;;;;;7.27;100.00;102563.19;2645466;36;21085;-72
2021/11/06 06:03:13;;;;;;;44.88;25.63;;;;;;;7.29;100.00;102569.38;2644374;36;20035;-72
2021/11/06 06:05:47;;;;;;;45.70;25.95;;;;;;;7.29;100.00;102570.22;2627787;36;20488;-71
2021/11/06 06:08:33;;;;;;;;;;;;;;;;;;;;;
2021/11/06 06:11:49;;;;;;;;;;;;;;;;;;;;;
2021/11/06 06:14:32;;;;;;;;;;;;;;;;;;;;;
2021/11/06 06:17:26;;;;;;;39.75;23.58;;;;;;;7.27;100.00;102572.09;2627085;36;20035;-73
2021/11/06 06:26:16;;;;;;;;;;;;;;;;;;;;;
2021/11/06 06:28:54;;;;;;;41.85;25.77;;;;;;;7.23;100.00;102583.91;2640724;36;20797;-72
2021/11/06 06:31:49;;;;;;;45.38;26.05;;;;;;;7.22;100.00;102573.28;2613168;54;20058;-72
2021/11/06 06:34:27;;;;;;;45.33;25.48;;;;;;;7.31;100.00;102572.81;2628232;36;20042;-72
2021/11/06 06:37:24;;;;;;;44.38;27.42;;;;;;;7.24;100.00;102577.59;2627984;36;20073;-71
2021/11/06 06:40:26;;;;;;;41.42;25.08;;;;;;;7.29;100.00;102570.22;2626979;36;20031;-71
2021/11/06 06:43:04;;;;;;;44.65;24.52;;;;;;;7.26;100.00;102570.38;2628423;36;20430;-74
2021/11/06 06:45:42;;;;;;;48.90;27.27;;;;;;;7.28;100.00;102568.47;2627352;36;20129;-71
2021/11/06 06:48:29;;;;;;;46.90;26.40;;;;;;;7.26;100.00;102567.69;2627429;36;20042;-71
2021/11/06 06:51:30;;;;;;;39.40;24.25;;;;;;;7.31;100.00;102565.66;2626038;36;20046;-71
2021/11/06 06:54:12;;;;;;;54.05;27.77;;;;;;;7.31;100.00;102560.28;2626120;36;20069;-71
2021/11/06 06:56:46;;;;;;;46.25;26.48;;;;;;;7.32;100.00;102561.19;2645375;36;20038;-72
2021/11/06 06:59:39;;;;;;;51.40;25.05;;;;;;;7.35;100.00;102561.03;2609129;36;20045;-71
2021/11/06 07:02:41;;;;;;;50.75;27.90;;;;;;;7.29;100.00;102564.88;2644723;36;20089;-73
2021/11/06 07:05:32;;;;;;;45.97;27.85;;;;;;;7.35;100.00;102569.91;2626379;36;20094;-73
2021/11/06 07:08:24;;;;;;;45.40;26.83;;;;;;;7.29;100.00;102569.38;2627093;36;20150;-71
2021/11/06 07:11:04;;;;;;;49.65;27.38;;;;;;;7.33;100.00;102569.13;2609281;36;20117;-71
2021/11/06 07:13:45;;;;;;;51.83;28.23;;;;;;;7.29;100.00;102570.22;2627399;36;20031;-71
2021/11/06 07:16:26;;;;;;;54.47;29.02;;;;;;;7.30;100.00;102576.44;2645152;36;20039;-72
2021/11/06 07:23:06;;;;;;;;;;;;;;;;;;;;;
2021/11/06 07:25:58;;;;;;;59.70;26.80;;;;;;;7.40;100.00;102579.56;2645118;36;20431;-72
2021/11/06 07:28:54;;;;;;;50.95;28.50;;;;;;;7.46;100.00;102582.78;2627725;31;20030;-73
2021/11/06 07:31:48;;;;;;;49.10;27.17;;;;;;;7.48;100.00;102580.03;2627370;36;20043;-70
2021/11/06 07:40:14;;;;;;;46.92;25.27;;;;;;;7.59;100.00;102592.94;2627597;36;20662;-74
2021/11/06 07:43:27;;;;;;;49.20;26.05;;;;;;;7.63;100.00;102603.44;2645308;36;20038;-72
2021/11/06 07:46:31;;;;;;;48.10;25.38;;;;;;;7.64;100.00;102591.78;2610279;36;20037;-73
2021/11/06 07:52:12;;;;;;;41.35;23.85;;;;;;;7.70;100.00;102586.13;2610569;54;20034;-72
2021/11/06 07:55:11;;;;;;;;;;;;;;;;;;;;;
2021/11/06 07:58:23;;;;;;;39.78;23.83;;;;;;;7.75;100.00;102583.22;2609123;36;20057;-72
2021/11/06 08:00:56;;;;;;;42.17;23.90;;;;;;;7.79;100.00;102583.91;2611370;36;20181;-71
2021/11/06 08:03:28;;;;;;;40.72;23.70;;;;;;;7.81;100.00;102582.91;2624897;36;20606;-72
2021/11/06 08:06:09;;;;;;;;;;;;;;;;;;;;;
2021/11/06 08:56:33;;;;;;;;;;;;;;;;;;;;;
2021/11/06 08:59:55;;;;;;;;;;;;;;;;;;;;;
2021/11/06 09:06:25;;;;;;;39.03;18.95;;;;;;;8.36;100.00;102563.16;2631603;36;20056;-72
2021/11/06 09:09:50;;;;;;;;;;;;;;;;;;;;;
2021/11/06 09:12:43;;;;;;;;;;;;;;;;;;;;;
2021/11/06 09:15:29;;;;;;;33.80;17.45;;;;;;;8.52;100.00;102562.38;2631165;36;20030;-73
2021/11/06 09:18:12;;;;;;;35.45;17.90;;;;;;;8.57;100.00;102554.97;2630602;36;20503;-79
2021/11/06 09:33:55;;;;;;;32.17;17.88;;;;;;;8.76;100.00;102558.41;2631062;36;20038;-77
2021/11/06 09:37:10;;;;;;;32.63;15.95;;;;;;;8.76;100.00;102555.72;2648491;31;20118;-74
2021/11/06 09:40:32;;;;;;;30.50;16.77;;;;;;;8.83;100.00;102556.22;2629992;36;20431;-73
2021/11/06 09:49:43;;;;;;;28.02;16.25;;;;;;;8.85;100.00;102558.81;2632166;36;20053;-82
2021/11/06 09:53:00;;;;;;;27.38;15.00;;;;;;;8.96;100.00;102552.91;2633233;36;20034;-72
2021/11/06 09:59:24;;;;;;;29.90;15.85;;;;;;;9.01;100.00;102554.38;2646873;36;20602;-81
2021/11/06 10:02:43;;;;;;;30.75;14.77;;;;;;;8.99;100.00;102539.28;2627941;36;20652;-80
2021/11/06 10:15:32;;;;;;;26.77;13.48;;;;;;;9.09;100.00;102530.63;2645724;36;20582;-72
2021/11/06 10:18:42;;;;;;;26.17;13.48;;;;;;;9.15;100.00;102528.56;2627361;36;20157;-72
2021/11/06 10:25:26;;;;;;;;;;;;;;;;;;;;;
2021/11/06 10:28:33;;;;;;;24.70;11.95;;;;;;;9.56;100.00;102515.47;2626981;36;20401;-78
2021/11/06 10:40:30;;;;;;;21.58;11.60;;;;;;;9.84;100.00;102510.31;2626346;36;20423;-79
2021/11/06 10:43:03;;;;;;;22.17;10.20;;;;;;;9.94;100.00;102504.28;2626517;36;20578;-74
2021/11/06 10:45:40;;;;;;;19.63;11.15;;;;;;;10.12;100.00;102505.00;2628587;36;20137;-74
2021/11/06 10:48:23;;;;;;;;;;;;;;;;;;;;;
2021/11/06 10:51:13;;;;;;;17.17;9.98;;;;;;;9.89;100.00;102492.06;2628682;36;20559;-74
2021/11/06 10:53:52;;;;;;;19.83;10.82;;;;;;;9.85;100.00;102495.88;2628046;36;20035;-79
2021/11/06 10:57:15;;;;;;;;;;;;;;;;;;;;;
2021/11/06 11:00:40;;;;;;;16.70;10.15;;;;;;;9.80;100.00;102509.59;2626762;36;20126;-70
2021/11/06 11:09:57;;;;;;;16.85;9.23;;;;;;;10.06;100.00;102485.69;2626768;36;20076;-73
2021/11/06 11:19:13;;;;;;;21.15;10.50;;;;;;;10.38;100.00;102472.97;2646141;36;20582;-72
2021/11/06 11:21:52;;;;;;;16.42;9.02;;;;;;;10.41;100.00;102472.78;2627312;36;20031;-71
2021/11/06 11:24:56;;;;;;;20.17;8.73;;;;;;;10.48;100.00;102466.06;2628977;36;20551;-72
2021/11/06 11:31:06;;;;;;;15.88;8.77;;;;;;;10.49;100.00;102446.22;2628812;36;20563;-79
2021/11/06 11:34:14;;;;;;;17.23;8.05;;;;;;;10.33;100.00;102449.03;2627292;36;20030;-76
2021/11/06 11:37:08;;;;;;;;;;;;;;;;;;;;;
2021/11/06 11:40:37;;;;;;;;;;;;;;;;;;;;;
2021/11/06 11:43:44;;;;;;;;;;;;;;;;;;;;;
2021/11/06 11:47:00;;;;;;;19.70;9.27;;;;;;;10.18;100.00;102433.81;2646450;36;19946;-74
2021/11/06 11:49:57;;;;;;;;;;;;;;;;;;;;;
2021/11/06 11:53:21;;;;;;;20.58;9.25;;;;;;;10.31;100.00;102432.06;2629386;36;21672;-75
2021/11/06 11:56:29;;;;;;;;;;;;;;;;;;;;;
2021/11/06 11:59:19;;;;;;;20.03;9.20;;;;;;;10.43;100.00;102417.00;2645333;36;20101;-82
2021/11/06 12:05:33;;;;;;;16.60;8.80;;;;;;;10.55;100.00;102404.59;2628853;36;20030;-73
2021/11/06 12:11:40;;;;;;;17.30;8.73;;;;;;;10.40;100.00;102398.38;2643294;31;20037;-71
2021/11/06 12:14:41;;;;;;;18.27;8.27;;;;;;;10.36;100.00;102402.22;2646732;36;20120;-75
2021/11/06 12:20:49;;;;;;;14.95;8.32;;;;;;;10.40;100.00;102390.28;2641209;36;20038;-73
2021/11/06 12:28:25;;;;;;;14.25;8.38;;;;;;;10.22;100.00;102370.78;2610547;36;20390;-81
2021/11/06 12:31:28;;;;;;;15.88;8.25;;;;;;;10.28;100.00;102374.91;2629377;36;20030;-74
2021/11/06 12:34:40;;;;;;;;;;;;;;;;;;;;;
2021/11/06 12:37:39;;;;;;;14.27;8.65;;;;;;;10.31;100.00;102370.19;2627714;36;20527;-74
2021/11/06 12:47:20;;;;;;;;;;;;;;;;;;;;;
2021/11/06 12:53:13;;;;;;;17.50;8.07;;;;;;;10.66;100.00;102342.00;2626924;36;20153;-80
2021/11/06 12:56:09;;;;;;;15.40;7.43;;;;;;;10.72;100.00;102324.56;2610840;36;21020;-72
2021/11/06 12:59:02;;;;;;;15.32;7.97;;;;;;;10.67;100.00;102327.56;2626149;36;20069;-80
2021/11/06 13:01:34;;;;;;;14.93;8.50;;;;;;;10.62;100.00;102321.63;2626299;36;20034;-73
2021/11/06 13:04:14;;;;;;;20.63;7.93;;;;;;;10.71;100.00;102312.94;2611430;36;20034;-73
2021/11/06 13:06:44;;;;;;;17.17;8.43;;;;;;;10.81;100.00;102307.81;2629029;36;20054;-78
2021/11/06 13:09:34;;;;;;;15.05;8.05;;;;;;;10.75;100.00;102319.84;2628094;36;20053;-75
2021/11/06 13:12:33;;;;;;;17.42;8.15;;;;;;;10.63;100.00;102305.38;2628386;36;20035;-73
2021/11/06 13:15:44;;;;;;;14.48;8.60;;;;;;;10.56;100.00;102303.19;2628024;36;20035;-72
2021/11/06 13:18:19;;;;;;;18.60;8.55;;;;;;;10.43;100.00;102309.34;2626364;36;20034;-73
2021/11/06 13:20:56;;;;;;;18.63;9.20;;;;;;;10.42;100.00;102302.22;2610159;36;20034;-74
2021/11/06 13:24:16;;;;;;;;;;;;;;;;;;;;;
2021/11/06 13:27:23;;;;;;;20.45;9.50;;;;;;;10.26;100.00;102290.69;2644025;36;20067;-78
2021/11/06 13:30:19;;;;;;;19.92;9.48;;;;;;;10.31;100.00;102288.59;2610861;36;20031;-72
2021/11/06 13:33:17;;;;;;;21.20;9.55;;;;;;;10.29;100.00;102277.94;2645740;36;20175;-74
2021/11/06 13:36:22;;;;;;;18.80;8.63;;;;;;;10.23;100.00;102281.03;2629743;36;20623;-74
2021/11/06 13:39:01;;;;;;;17.38;8.60;;;;;;;10.26;100.00;102285.31;2646997;36;20057;-73
2021/11/06 13:41:59;;;;;;;18.48;8.75;;;;;;;10.26;100.00;102269.16;2628108;36;20042;-82
2021/11/06 13:44:32;;;;;;;17.67;9.25;;;;;;;10.35;100.00;102263.25;2628517;36;20114;-73
2021/11/06 13:47:09;;;;;;;20.92;8.98;;;;;;;10.40;100.00;102262.94;2628374;36;20130;-72
2021/11/06 13:49:58;;;;;;;18.05;8.60;;;;;;;10.46;100.00;102263.38;2629102;36;20057;-71
2021/11/06 13:52:35;;;;;;;17.05;8.85;;;;;;;10.51;100.00;102245.13;2628857;36;20450;-74
2021/11/06 13:55:14;;;;;;;16.33;9.38;;;;;;;10.44;100.00;102246.47;2627814;36;20212;-82
2021/11/06 13:58:23;;;;;;;;;;;;;;;;;;;;;
2021/11/06 14:00:52;;;;;;;18.20;9.32;;;;;;;10.34;100.00;102232.75;2643967;36;20037;-80
2021/11/06 14:03:47;;;;;;;19.10;9.70;;;;;;;10.34;100.00;102234.59;2626478;36;20127;-73
2021/11/06 14:06:47;;;;;;;16.42;9.05;;;;;;;10.37;100.00;102220.94;2646899;36;20045;-80
2021/11/06 14:09:59;;;;;;;16.98;9.45;;;;;;;10.41;100.00;102235.91;2627221;36;20030;-73
2021/11/06 14:12:52;;;;;;;16.00;9.73;;;;;;;10.42;100.00;102216.09;2629356;36;20563;-75
2021/11/06 14:16:13;;;;;;;15.25;8.57;;;;;;;10.39;100.00;102205.53;2611753;36;20523;-81
2021/11/06 14:19:05;;;;;;;15.18;9.32;;;;;;;10.41;100.00;102209.00;2646465;36;20033;-80
2021/11/06 14:21:45;;;;;;;19.88;9.85;;;;;;;10.41;100.00;102198.25;2625745;36;20090;-74
2021/11/06 14:24:55;;;;;;;12.80;8.93;;;;;;;10.36;100.00;102199.50;2646662;36;20546;-82
2021/11/06 14:27:30;;;;;;;19.40;10.40;;;;;;;10.38;100.00;102198.44;2610831;36;20126;-74
2021/11/06 14:30:26;;;;;;;17.27;10.30;;;;;;;10.45;100.00;102193.50;2628444;36;20030;-81
2021/11/06 14:36:17;;;;;;;18.23;9.35;;;;;;;10.40;100.00;102169.59;2611300;36;20049;-75
2021/11/06 14:39:12;;;;;;;18.05;9.40;;;;;;;10.45;100.00;102170.16;2628891;36;20042;-73
2021/11/06 14:45:11;;;;;;;;;;;;;;;;;;;;;
2021/11/06 14:48:17;;;;;;;;;;;;;;;;;;;;;
2021/11/06 14:54:02;;;;;;;17.25;8.15;;;;;;;10.51;100.00;102158.97;2610847;36;20056;-73
2021/11/06 14:56:42;;;;;;;20.05;10.45;;;;;;;10.50;100.00;102159.94;2630197;31;20527;-72
2021/11/06 14:59:43;;;;;;;15.02;8.48;;;;;;;10.52;100.00;102157.97;2628786;36;20030;-81
2021/11/06 15:02:39;;;;;;;12.50;7.75;;;;;;;10.55;100.00;102151.53;2628004;36;20061;-75
2021/11/06 15:05:28;;;;;;;15.23;7.65;;;;;;;10.48;100.00;102153.81;2611021;36;20038;-73
2021/11/06 15:08:01;;;;;;;15.10;8.20;;;;;;;10.49;100.00;102158.19;2628772;36;20065;-74
2021/11/06 15:10:39;;;;;;;15.73;7.07;;;;;;;10.50;100.00;102149.16;2611011;31;20031;-81
2021/11/06 15:13:31;;;;;;;18.30;7.57;;;;;;;10.48;100.00;102163.69;2628395;36;20146;-73
2021/11/06 15:16:27;;;;;;;;;;;;;;;;;;;;;
2021/11/06 15:18:57;;;;;;;13.60;7.03;;;;;;;10.46;100.00;102153.03;2645592;36;21259;-72
2021/11/06 15:21:47;;;;;;;;;;;;;;;;;;;;;
2021/11/06 15:24:24;;;;;;;15.10;7.93;;;;;;;10.46;100.00;102166.47;2610489;36;20582;-74
2021/11/06 15:32:56;;;;;;;15.53;7.30;;;;;;;10.48;100.00;102172.63;2626434;36;20030;-73
2021/11/06 15:35:27;;;;;;;14.10;7.77;;;;;;;10.50;100.00;102162.63;2607593;36;20548;-72
2021/11/06 15:38:04;;;;;;;15.32;8.52;;;;;;;10.48;100.00;102172.63;2608493;36;20357;-73
2021/11/06 15:40:36;;;;;;;13.93;7.97;;;;;;;10.48;100.00;102167.25;2607070;36;20157;-74
2021/11/06 15:43:05;;;;;;;18.55;9.05;;;;;;;10.44;100.00;102160.34;2608416;36;20034;-76
2021/11/06 15:50:58;;;;;;;14.18;8.18;;;;;;;10.41;100.00;102148.91;2609561;36;20030;-75
2021/11/06 15:53:38;;;;;;;12.47;8.47;;;;;;;10.40;100.00;102137.28;2609693;31;20484;-73
2021/11/06 15:56:07;;;;;;;14.30;8.90;;;;;;;10.36;100.00;102135.75;2610344;36;21496;-73
2021/11/06 15:58:47;;;;;;;14.82;9.43;;;;;;;10.33;100.00;102131.47;2609788;36;20038;-73
2021/11/06 16:01:15;;;;;;;13.02;8.63;;;;;;;10.36;100.00;102130.38;2610332;36;20034;-75
2021/11/06 16:03:43;;;;;;;16.33;10.27;;;;;;;10.39;100.00;102114.03;2609873;36;20663;-74
2021/11/06 16:06:29;;;;;;;;;;;;;;;;;;;;;
2021/11/06 16:12:15;;;;;;;16.77;9.80;;;;;;;10.29;100.00;102092.25;2610219;36;20760;-72
2021/11/06 16:14:43;;;;;;;14.65;10.55;;;;;;;10.30;100.00;102076.94;2610449;36;20031;-74
2021/11/06 16:17:13;;;;;;;15.88;10.50;;;;;;;10.32;100.00;102080.38;2610502;36;21049;-74
2021/11/06 16:19:42;;;;;;;15.80;10.82;;;;;;;10.30;100.00;102082.34;2611709;36;20034;-73
2021/11/06 16:24:47;;;;;;;16.98;11.43;;;;;;;10.26;100.00;102064.66;2610956;36;20073;-74
2021/11/06 16:27:15;;;;;;;19.92;11.73;;;;;;;10.25;100.00;102073.72;2611143;36;20034;-74
2021/11/06 16:29:44;;;;;;;17.45;12.85;;;;;;;10.25;100.00;102065.66;2611277;36;20101;-73
2021/11/06 16:32:13;;;;;;;22.52;12.25;;;;;;;10.26;100.00;102070.03;2609650;36;20045;-73
2021/11/06 16:34:41;;;;;;;16.98;11.90;;;;;;;10.25;100.00;102066.50;2610424;36;20061;-74
2021/11/06 16:37:09;;;;;;;20.63;11.73;;;;;;;10.23;100.00;102062.19;2611248;36;20133;-74
2021/11/06 16:39:38;;;;;;;19.23;13.27;;;;;;;10.18;100.00;102055.28;2610556;36;20052;-72
2021/11/06 16:42:09;;;;;;;18.50;12.60;;;;;;;10.20;100.00;102065.09;2610987;31;20030;-72
2021/11/06 16:44:39;;;;;;;21.63;14.15;;;;;;;10.12;100.00;102058.41;2610748;36;20604;-73
2021/11/06 16:47:10;;;;;;;23.70;14.20;;;;;;;10.13;100.00;102048.53;2609695;36;20565;-73
2021/11/06 16:49:39;;;;;;;24.40;14.73;;;;;;;10.09;100.00;102037.09;2610260;36;20038;-73
2021/11/06 16:52:17;;;;;;;21.90;15.27;;;;;;;10.10;100.00;102028.06;2609784;36;20162;-74
2021/11/06 16:54:45;;;;;;;22.77;15.77;;;;;;;10.10;100.00;102014.59;2609794;31;20534;-72
2021/11/06 16:57:16;;;;;;;26.33;16.70;;;;;;;10.14;100.00;102018.81;2610432;36;20035;-74
2021/11/06 17:03:24;;;;;;;26.20;17.30;;;;;;;10.12;100.00;102004.59;2596180;31;20046;-74
2021/11/06 17:06:00;;;;;;;28.73;18.05;;;;;;;10.07;100.00;101996.00;2598333;36;20125;-72
2021/11/06 17:11:39;;;;;;;28.42;19.30;;;;;;;10.04;100.00;102006.97;2597583;36;20114;-72
2021/11/06 17:14:10;;;;;;;26.67;19.35;;;;;;;10.05;100.00;101997.91;2598731;31;20069;-71
2021/11/06 17:16:38;;;;;;;28.83;17.80;;;;;;;10.10;100.00;101987.72;2597422;36;20362;-73
2021/11/06 17:19:06;;;;;;;28.52;18.45;;;;;;;10.12;100.00;101983.06;2597988;36;20038;-74
2021/11/06 17:21:35;;;;;;;25.23;18.05;;;;;;;10.11;100.00;101985.88;2597283;36;20038;-72
2021/11/06 17:24:03;;;;;;;33.88;19.50;;;;;;;10.04;100.00;101963.03;2597121;36;20153;-74
2021/11/06 17:26:33;;;;;;;27.70;18.38;;;;;;;10.06;100.00;101948.53;2597731;36;20184;-73
2021/11/06 17:29:01;;;;;;;22.98;17.73;;;;;;;10.07;100.00;101947.56;2597591;36;20037;-72
2021/11/06 17:31:32;;;;;;;32.08;18.65;;;;;;;10.09;100.00;101955.53;2598533;36;20748;-73
2021/11/06 17:34:03;;;;;;;27.55;17.73;;;;;;;10.10;100.00;101957.22;2598421;36;20172;-72
2021/11/06 17:36:31;;;;;;;27.27;19.40;;;;;;;10.08;100.00;101946.59;2598215;36;20463;-72
2021/11/06 17:39:00;;;;;;;26.65;17.98;;;;;;;10.11;100.00;101953.59;2597928;36;20058;-73
2021/11/06 17:41:29;;;;;;;27.30;18.17;;;;;;;10.09;100.00;101951.00;2597996;31;20571;-71
2021/11/06 17:43:57;;;;;;;24.53;18.67;;;;;;;10.08;100.00;101937.66;2599157;31;20514;-72
2021/11/06 17:46:26;;;;;;;27.10;18.05;;;;;;;10.09;100.00;101950.16;2598655;36;20038;-73
2021/11/06 17:48:57;;;;;;;25.73;18.85;;;;;;;10.07;100.00;101942.19;2598638;36;20447;-72
2021/11/06 17:51:32;;;;;;;27.80;18.73;;;;;;;10.08;100.00;101927.75;2598878;36;20038;-72
2021/11/06 17:54:03;;;;;;;27.95;19.33;;;;;;;10.08;100.00;101938.50;2598123;36;20562;-74
2021/11/06 17:56:32;;;;;;;29.35;18.48;;;;;;;10.10;100.00;101930.34;2597942;36;20065;-74
2021/11/06 17:59:01;;;;;;;25.63;18.10;;;;;;;10.09;100.00;101928.63;2598880;36;20579;-73
2021/11/06 18:01:34;;;;;;;25.17;18.75;;;;;;;10.09;100.00;101932.19;2597970;36;20050;-73
2021/11/06 18:04:05;;;;;;;30.33;18.90;;;;;;;10.11;100.00;101916.78;2598055;36;20066;-73
2021/11/06 18:06:34;;;;;;;31.23;20.13;;;;;;;10.08;100.00;101933.13;2597355;36;20276;-71
2021/11/06 18:09:02;;;;;;;28.10;20.90;;;;;;;10.02;100.00;101925.50;2597658;36;20157;-73
2021/11/06 18:11:38;;;;;;;33.30;22.77;;;;;;;10.10;100.00;101909.69;2599104;36;20592;-75
2021/11/06 18:14:07;;;;;;;28.55;21.17;;;;;;;10.03;100.00;101897.63;2598392;36;20295;-71
2021/11/06 18:16:35;;;;;;;31.92;21.23;;;;;;;10.00;100.00;101898.72;2598183;36;20065;-71
2021/11/06 18:19:06;;;;;;;31.23;22.98;;;;;;;10.02;100.00;101920.13;2598415;36;20072;-72
2021/11/06 18:21:39;;;;;;;30.27;21.15;;;;;;;9.99;100.00;101901.50;2597826;36;20542;-73
2021/11/06 18:24:25;;;;;;;30.80;22.73;;;;;;;9.97;100.00;101908.84;2597158;36;20030;-73
2021/11/06 18:26:53;;;;;;;29.80;21.70;;;;;;;9.95;100.00;101897.28;2597453;36;20034;-72
2021/11/06 18:29:28;;;;;;;32.90;22.77;;;;;;;9.98;100.00;101873.75;2597573;31;20089;-72
2021/11/06 18:32:00;;;;;;;35.13;23.65;;;;;;;9.93;100.00;101880.41;2614383;36;20436;-71
2021/11/06 18:34:31;;;;;;;28.08;22.48;;;;;;;9.96;100.00;101882.91;2597617;36;20137;-73
2021/11/06 18:36:59;;;;;;;30.73;22.63;;;;;;;9.96;100.00;101894.50;2598008;31;20507;-77
2021/11/06 18:39:27;;;;;;;31.25;23.23;;;;;;;9.94;100.00;101887.53;2595954;36;20041;-75
2021/11/06 18:41:56;;;;;;;29.20;21.95;;;;;;;9.92;100.00;101890.31;2595905;36;20465;-73
2021/11/06 18:44:25;;;;;;;34.95;22.65;;;;;;;9.91;100.00;101885.03;2596042;36;20061;-74
2021/11/06 18:46:56;;;;;;;28.53;23.03;;;;;;;9.89;100.00;101884.28;2597439;36;20061;-73
2021/11/06 18:49:24;;;;;;;28.80;21.50;;;;;;;10.01;100.00;101878.03;2597921;36;20031;-73
2021/11/06 18:51:55;;;;;;;27.65;22.27;;;;;;;9.91;100.00;101882.34;2597528;36;20030;-72
2021/11/06 18:54:25;;;;;;;29.95;21.33;;;;;;;9.92;100.00;101879.56;2596328;36;20081;-73
2021/11/06 18:56:53;;;;;;;;;;;;;;;9.91;100.00;101877.84;2600145;36;20042;-72
2021/11/06 18:59:21;;;;;;;28.38;20.17;;;;;;;9.93;100.00;101875.91;2600450;36;19969;-74
2021/11/06 19:01:50;;;;;;;29.55;22.55;;;;;;;9.90;100.00;101877.94;2599320;36;20141;-73
2021/11/06 19:04:18;;;;;;;26.35;22.65;;;;;;;9.91;100.00;101883.22;2598569;36;20031;-71
2021/11/06 19:06:46;;;;;;;29.20;20.90;;;;;;;9.87;100.00;101875.47;2598181;36;20153;-73
2021/11/06 19:09:17;;;;;;;30.90;21.05;;;;;;;9.91;100.00;101871.59;2597117;36;20134;-73
2021/11/06 19:11:49;;;;;;;28.20;20.10;;;;;;;9.86;100.00;101855.78;2596780;36;20065;-72
2021/11/06 19:14:18;;;;;;;33.40;22.88;;;;;;;9.90;100.00;101849.22;2597341;36;20034;-73
2021/11/06 19:16:47;;;;;;;28.73;21.55;;;;;;;9.93;100.00;101854.38;2597970;31;20069;-71
2021/11/06 19:19:20;;;;;;;28.80;19.35;;;;;;;9.97;100.00;101845.13;2597132;36;20035;-73